Time;durP1;ratioP1;P1;durP2;ratioP2;P2;SDS_P1;SDS_P2;PMS_P1;PMS_P2;Temp;Humidity;BMP_temperature;BMP_pressure;BME280_temperature;BME280_humidity;BME280_pressure;Samples;Min_cycle;Max_cycle;Signal;HPM_P1;HPM_P2
2022/04/14 00:01:13;;;;;;;9.57;3.65;;;;;;;14.25;33.07;99159.47;4424252;32;20185;-85
2022/04/14 00:03:40;;;;;;;13.32;4.12;;;;;;;14.22;32.98;99160.53;4424515;32;20117;-86
2022/04/14 00:06:06;;;;;;;10.57;3.90;;;;;;;14.23;32.99;99153.41;4425439;32;20163;-86
2022/04/14 00:08:31;;;;;;;13.62;4.22;;;;;;;14.21;32.92;99153.50;4425586;32;20130;-85
2022/04/14 00:10:57;;;;;;;10.65;4.07;;;;;;;14.12;33.09;99157.59;4424289;32;20081;-85
2022/04/14 00:13:23;;;;;;;12.93;4.37;;;;;;;14.08;33.07;99158.75;4425620;32;20121;-85
2022/04/14 00:15:48;;;;;;;11.52;3.90;;;;;;;14.06;33.03;99158.00;4425620;32;20155;-85
2022/04/14 00:18:14;;;;;;;11.12;3.92;;;;;;;14.08;32.88;99165.81;4424180;32;20101;-85
2022/04/14 00:20:39;;;;;;;11.30;3.95;;;;;;;14.07;32.76;99158.84;4425341;32;20078;-85
2022/04/14 00:23:05;;;;;;;10.27;3.78;;;;;;;14.09;32.59;99146.34;4424334;32;20098;-85
2022/04/14 00:25:30;;;;;;;11.60;4.35;;;;;;;14.04;32.67;99156.38;4425380;32;20183;-85
2022/04/14 00:27:55;;;;;;;11.90;4.57;;;;;;;14.02;32.64;99148.53;4425386;32;20081;-86
2022/04/14 00:30:21;;;;;;;11.60;4.37;;;;;;;13.99;32.79;99150.53;4425531;32;20113;-85
2022/04/14 00:32:46;;;;;;;11.68;4.15;;;;;;;13.96;32.87;99156.84;4425244;32;20388;-85
2022/04/14 00:35:12;;;;;;;11.35;3.87;;;;;;;13.90;33.10;99155.44;4425360;32;20159;-85
2022/04/14 00:37:39;;;;;;;10.15;4.12;;;;;;;13.90;33.18;99152.78;4424087;32;20120;-84
2022/04/14 00:40:05;;;;;;;11.38;4.07;;;;;;;13.87;33.13;99154.78;4425298;32;20106;-85
2022/04/14 00:42:31;;;;;;;10.18;3.65;;;;;;;13.88;33.12;99148.53;4425221;32;20175;-85
2022/04/14 00:44:56;;;;;;;10.90;4.25;;;;;;;13.80;33.40;99151.66;4411079;32;20106;-84
2022/04/14 00:47:22;;;;;;;10.15;3.40;;;;;;;13.81;33.37;99149.88;4425303;32;20117;-85
2022/04/14 00:49:48;;;;;;;9.27;3.35;;;;;;;13.80;33.40;99150.84;4424139;32;20094;-84
2022/04/14 00:52:15;;;;;;;10.27;3.50;;;;;;;13.77;33.34;99154.50;4424964;32;20128;-85
2022/04/14 00:54:40;;;;;;;11.55;3.67;;;;;;;13.73;33.44;99148.56;4424866;32;20105;-84
2022/04/14 00:57:06;;;;;;;9.60;3.85;;;;;;;13.80;33.35;99143.72;4424861;32;20085;-85
2022/04/14 00:59:31;;;;;;;9.43;3.15;;;;;;;13.55;33.42;99139.94;4425196;32;20089;-85
2022/04/14 01:01:57;;;;;;;8.68;3.28;;;;;;;13.70;33.22;99139.97;4425192;32;20105;-85
2022/04/14 01:04:24;;;;;;;9.95;3.30;;;;;;;13.68;33.46;99147.16;4424024;32;20131;-84
2022/04/14 01:06:50;;;;;;;9.73;3.37;;;;;;;13.65;33.41;99140.22;4424000;32;20097;-86
2022/04/14 01:09:21;;;;;;;11.52;3.67;;;;;;;13.65;33.34;99140.22;4425096;32;20081;-85
2022/04/14 01:11:49;;;;;;;10.32;3.20;;;;;;;13.60;33.62;99142.31;4425377;32;20102;-85
2022/04/14 01:14:26;;;;;;;10.48;3.50;;;;;;;13.64;33.59;99143.84;4425025;32;20102;-85
2022/04/14 01:16:53;;;;;;;10.15;3.67;;;;;;;13.60;33.52;99139.69;4423831;32;20551;-85
2022/04/14 01:19:18;;;;;;;9.88;3.58;;;;;;;13.50;33.71;99141.16;4425122;32;20111;-85
2022/04/14 01:22:12;;;;;;;9.35;3.50;;;;;;;13.59;33.46;99139.75;4425028;32;20124;-85
2022/04/14 01:24:39;;;;;;;11.00;4.20;;;;;;;13.56;33.48;99136.34;4415664;32;20106;-85
2022/04/14 01:27:05;;;;;;;12.20;3.62;;;;;;;13.55;33.14;99136.44;4424077;32;20093;-85
2022/04/14 01:29:31;;;;;;;9.02;3.25;;;;;;;13.58;33.13;99136.28;4424999;32;20108;-85
2022/04/14 01:31:58;;;;;;;10.77;3.67;;;;;;;13.52;33.02;99142.78;4424699;32;20723;-84
2022/04/14 01:34:23;;;;;;;10.15;3.00;;;;;;;13.56;33.16;99136.34;4423623;32;20227;-85
2022/04/14 01:36:49;;;;;;;9.68;3.55;;;;;;;13.45;33.32;99138.81;4423554;32;20109;-85
2022/04/14 01:39:14;;;;;;;9.38;3.15;;;;;;;13.46;33.31;99129.06;4423763;32;20543;-84
2022/04/14 01:41:41;;;;;;;10.00;3.10;;;;;;;13.51;33.14;99134.94;4424526;32;20105;-85
2022/04/14 01:44:07;;;;;;;11.10;3.20;;;;;;;13.41;33.27;99133.81;4423480;32;20109;-85
2022/04/14 01:46:33;;;;;;;10.13;3.15;;;;;;;13.42;33.24;99146.06;4423492;32;20399;-85
2022/04/14 01:48:59;;;;;;;7.75;3.03;;;;;;;13.41;33.33;99137.28;4424475;32;20111;-85
2022/04/14 01:51:26;;;;;;;10.30;3.35;;;;;;;13.39;33.35;99141.00;4423578;32;20123;-84
2022/04/14 01:53:51;;;;;;;10.82;3.30;;;;;;;13.37;33.53;99149.00;4424887;32;20163;-85
2022/04/14 01:56:18;;;;;;;11.20;3.30;;;;;;;13.40;33.59;99140.03;4424788;32;20097;-85
2022/04/14 01:58:44;;;;;;;8.00;3.03;;;;;;;13.39;33.57;99138.34;4424803;32;20089;-85
2022/04/14 02:01:09;;;;;;;12.57;2.97;;;;;;;13.19;33.46;99142.97;4424932;32;20373;-86
2022/04/14 02:03:36;;;;;;;9.45;3.10;;;;;;;13.25;33.76;99137.34;4425147;32;20125;-85
2022/04/14 02:06:01;;;;;;;8.55;3.22;;;;;;;13.31;33.77;99144.09;4424945;32;20105;-85
2022/04/14 02:08:27;;;;;;;9.18;3.20;;;;;;;13.36;33.62;99144.66;4423690;32;20089;-86
2022/04/14 02:10:52;;;;;;;10.75;3.28;;;;;;;13.29;33.66;99138.84;4424853;32;20137;-85
2022/04/14 02:13:18;;;;;;;10.88;3.50;;;;;;;13.26;33.73;99138.19;4424925;32;20488;-86
2022/04/14 02:15:43;;;;;;;9.20;3.47;;;;;;;13.24;33.75;99140.06;4423741;32;20097;-85
2022/04/14 02:18:08;;;;;;;10.23;3.30;;;;;;;13.25;33.86;99137.34;4424973;32;20433;-86
2022/04/14 02:20:34;;;;;;;11.07;3.62;;;;;;;13.26;33.90;99139.03;4424756;32;20482;-86
2022/04/14 02:22:59;;;;;;;9.60;3.42;;;;;;;13.28;33.87;99142.44;4424767;32;20136;-86
2022/04/14 02:25:25;;;;;;;10.30;3.60;;;;;;;13.17;33.90;99143.09;4424828;32;20406;-86
2022/04/14 02:27:50;;;;;;;10.15;3.42;;;;;;;13.15;33.89;99131.75;4424526;32;20473;-85
2022/04/14 02:30:16;;;;;;;10.43;3.30;;;;;;;13.18;33.74;99139.47;4424412;32;20094;-85
2022/04/14 02:32:41;;;;;;;9.38;3.53;;;;;;;13.17;33.94;99140.44;4423107;32;20120;-85
2022/04/14 02:35:07;;;;;;;10.77;3.60;;;;;;;13.20;34.02;99141.19;4424417;32;20140;-85
2022/04/14 02:37:32;;;;;;;9.15;3.30;;;;;;;13.18;34.12;99139.47;4424133;32;20116;-85
2022/04/14 02:39:58;;;;;;;9.20;3.10;;;;;;;13.19;34.05;99148.25;4424194;32;20113;-85
2022/04/14 02:42:23;;;;;;;11.32;3.55;;;;;;;13.15;34.18;99138.81;4423033;32;20094;-85
2022/04/14 02:44:49;;;;;;;10.30;3.78;;;;;;;13.03;34.13;99139.56;4424108;32;20086;-85
2022/04/14 02:47:14;;;;;;;11.35;3.25;;;;;;;13.12;33.94;99142.50;4423107;32;20132;-85
2022/04/14 02:49:39;;;;;;;10.13;3.10;;;;;;;13.13;34.03;99140.69;4424248;32;20460;-85
2022/04/14 02:52:05;;;;;;;10.48;3.20;;;;;;;13.14;34.17;99139.78;4424333;32;20097;-85
2022/04/14 02:54:37;;;;;;;8.90;2.92;;;;;;;13.13;34.37;99144.22;4426044;32;20085;-84
2022/04/14 02:57:04;;;;;;;10.73;3.20;;;;;;;13.15;34.27;99134.41;4426122;32;20420;-85
2022/04/14 02:59:29;;;;;;;7.90;2.70;;;;;;;13.13;33.88;99136.28;4425004;32;20484;-85
2022/04/14 03:01:55;;;;;;;11.27;3.03;;;;;;;13.20;33.90;99130.63;4426031;32;20094;-84
2022/04/14 03:04:20;;;;;;;8.60;3.08;;;;;;;13.19;34.16;99132.41;4425887;32;20081;-84
2022/04/14 03:06:45;;;;;;;9.38;3.05;;;;;;;13.16;34.21;99130.78;4425969;32;20089;-85
2022/04/14 03:09:11;;;;;;;9.90;3.05;;;;;;;13.17;34.27;99135.16;4425881;32;20154;-85
2022/04/14 03:11:37;;;;;;;10.05;3.30;;;;;;;13.13;34.32;99132.75;4425908;32;20116;-85
2022/04/14 03:14:02;;;;;;;9.93;3.12;;;;;;;13.08;34.63;99130.41;4425962;32;20168;-85
2022/04/14 03:16:28;;;;;;;9.23;3.00;;;;;;;13.07;34.70;99131.34;4426012;32;20086;-85
2022/04/14 03:18:53;;;;;;;10.48;3.17;;;;;;;13.11;34.68;99138.13;4424733;32;20106;-85
2022/04/14 03:21:18;;;;;;;9.02;2.75;;;;;;;12.81;35.44;99140.81;4424694;32;20098;-85
2022/04/14 03:23:44;;;;;;;11.07;3.00;;;;;;;13.02;35.11;99141.34;4425781;32;20357;-85
2022/04/14 03:26:09;;;;;;;9.05;2.92;;;;;;;13.06;35.10;99142.03;4425914;32;20085;-85
2022/04/14 03:28:36;;;;;;;9.05;3.10;;;;;;;13.08;34.96;99142.78;4425854;32;20093;-85
2022/04/14 03:31:01;;;;;;;7.47;2.70;;;;;;;12.93;34.67;99132.16;4425721;32;20101;-85
2022/04/14 03:33:27;;;;;;;7.37;2.90;;;;;;;13.03;34.68;99136.91;4425815;32;20102;-84
2022/04/14 03:35:52;;;;;;;9.10;3.17;;;;;;;13.09;34.74;99137.38;4425764;32;20114;-84
2022/04/14 03:38:17;;;;;;;7.68;2.75;;;;;;;13.05;34.72;99138.50;4425863;32;20159;-85
2022/04/14 03:40:43;;;;;;;11.12;2.75;;;;;;;13.03;34.71;99140.41;4424426;32;20094;-85
2022/04/14 03:43:08;;;;;;;10.75;2.90;;;;;;;13.01;34.79;99142.28;4425607;32;20108;-85
2022/04/14 03:45:33;;;;;;;8.73;2.65;;;;;;;12.98;34.85;99138.03;4425661;32;20139;-85
2022/04/14 03:47:59;;;;;;;8.27;2.97;;;;;;;12.94;34.97;99146.22;4425708;32;20093;-85
2022/04/14 03:50:24;;;;;;;9.50;2.87;;;;;;;12.85;34.85;99149.41;4425732;32;20081;-85
2022/04/14 03:52:50;;;;;;;8.55;2.78;;;;;;;12.97;34.60;99148.69;4425745;32;20109;-85
2022/04/14 03:55:15;;;;;;;9.38;2.85;;;;;;;12.83;35.11;99154.78;4425625;32;20130;-84
2022/04/14 03:57:40;;;;;;;12.00;3.47;;;;;;;12.94;34.87;99138.28;4425659;32;20140;-85
2022/04/14 04:00:07;;;;;;;9.70;3.00;;;;;;;12.88;34.84;99141.28;4425627;32;20137;-85
2022/04/14 04:02:34;;;;;;;10.32;3.47;;;;;;;12.72;35.50;99152.75;4423868;32;20426;-85
2022/04/14 04:05:00;;;;;;;;;;;;;;;12.91;35.20;99152.53;4425908;32;20078;-85
2022/04/14 04:07:25;;;;;;;10.32;3.17;;;;;;;12.90;35.48;99157.91;4424536;32;20000;-85
2022/04/14 04:09:51;;;;;;;10.88;3.17;;;;;;;13.03;35.17;99150.13;4425553;32;20116;-85
2022/04/14 04:12:19;;;;;;;11.05;3.67;;;;;;;13.05;35.24;99150.88;4425527;32;20081;-85
2022/04/14 04:14:45;;;;;;;8.15;3.10;;;;;;;13.05;35.16;99151.72;4425608;32;20089;-84
2022/04/14 04:17:10;;;;;;;9.32;2.92;;;;;;;13.08;35.22;99148.91;4424459;32;20124;-85
2022/04/14 04:19:38;;;;;;;10.50;3.50;;;;;;;13.15;35.21;99147.63;4425327;32;20086;-85
2022/04/14 04:22:04;;;;;;;11.00;3.17;;;;;;;13.17;35.26;99156.31;4425424;32;20074;-85
2022/04/14 04:24:30;;;;;;;11.05;3.47;;;;;;;13.26;35.13;99159.34;4425471;32;20112;-86
2022/04/14 04:26:55;;;;;;;12.05;3.30;;;;;;;13.25;35.11;99157.63;4424367;32;20132;-84
2022/04/14 04:29:21;;;;;;;8.98;3.08;;;;;;;13.25;35.13;99160.28;4425419;32;20098;-85
2022/04/14 04:31:46;;;;;;;10.35;3.50;;;;;;;13.25;34.96;99157.63;4425383;32;20136;-84
2022/04/14 04:34:11;;;;;;;8.95;3.45;;;;;;;13.28;34.94;99158.31;4425596;32;20105;-84
2022/04/14 04:36:37;;;;;;;9.10;3.25;;;;;;;13.29;35.04;99164.44;4424154;32;20105;-84
2022/04/14 04:39:04;;;;;;;10.27;3.60;;;;;;;13.24;35.38;99161.25;4425498;32;20147;-84
2022/04/14 04:41:30;;;;;;;10.00;3.30;;;;;;;13.30;35.22;99160.91;4425343;32;20462;-84
2022/04/14 04:43:55;;;;;;;11.12;3.62;;;;;;;13.34;35.23;99163.25;4425358;32;20135;-85
2022/04/14 04:46:21;;;;;;;9.43;3.17;;;;;;;13.40;35.09;99159.41;4424300;32;20110;-85
2022/04/14 04:48:46;;;;;;;9.63;3.62;;;;;;;13.47;35.00;99163.37;4425555;32;20108;-86
2022/04/14 04:51:12;;;;;;;9.20;3.67;;;;;;;13.52;34.96;99163.97;4425531;32;20078;-85
2022/04/14 04:53:37;;;;;;;11.02;3.90;;;;;;;13.61;34.79;99174.94;4425512;32;20078;-85
2022/04/14 04:56:03;;;;;;;13.10;4.55;;;;;;;13.71;34.68;99171.63;4425519;32;20112;-86
2022/04/14 04:58:28;;;;;;;10.60;4.37;;;;;;;13.81;34.73;99171.06;4425479;32;20120;-85
2022/04/14 05:00:53;;;;;;;14.20;4.97;;;;;;;13.88;34.68;99170.56;4425401;32;20420;-85
2022/04/14 05:03:21;;;;;;;13.70;5.43;;;;;;;13.95;34.77;99176.38;4425528;32;20073;-85
2022/04/14 05:05:46;;;;;;;14.80;5.82;;;;;;;14.05;34.65;99172.19;4424410;32;20097;-85
2022/04/14 05:08:12;;;;;;;13.35;5.00;;;;;;;14.14;34.50;99184.00;4425372;32;20113;-85
2022/04/14 05:10:37;;;;;;;12.90;5.53;;;;;;;14.18;34.52;99182.00;4424127;32;20089;-86
2022/04/14 05:13:04;;;;;;;13.45;5.53;;;;;;;14.21;34.59;99169.41;4423483;32;20093;-85
2022/04/14 05:15:29;;;;;;;14.60;5.50;;;;;;;14.29;34.62;99174.22;4423537;32;20153;-84
2022/04/14 05:17:55;;;;;;;11.30;4.82;;;;;;;14.39;34.65;99174.47;4423835;32;20090;-85
2022/04/14 05:20:20;;;;;;;12.23;4.97;;;;;;;14.45;34.55;99177.59;4425123;32;20445;-84
2022/04/14 05:22:46;;;;;;;14.50;6.00;;;;;;;14.50;34.47;99185.25;4424877;32;20082;-85
2022/04/14 05:25:11;;;;;;;15.43;6.47;;;;;;;14.56;34.39;99176.91;4425019;32;20203;-85
2022/04/14 05:27:37;;;;;;;15.25;6.43;;;;;;;14.54;34.40;99181.44;4424059;32;20499;-84
2022/04/14 05:30:03;;;;;;;14.45;6.70;;;;;;;14.60;34.56;99185.53;4425179;32;20113;-85
2022/04/14 05:32:28;;;;;;;15.30;6.50;;;;;;;14.74;34.39;99185.50;4425141;32;20103;-85
2022/04/14 05:34:54;;;;;;;14.13;5.82;;;;;;;14.88;34.49;99187.25;4425050;32;20092;-85
2022/04/14 05:37:19;;;;;;;15.82;6.43;;;;;;;15.08;34.90;99189.41;4424134;32;20116;-84
2022/04/14 05:39:46;;;;;;;14.30;6.35;;;;;;;15.20;35.16;99184.25;4425374;32;20078;-84
2022/04/14 05:42:12;;;;;;;14.00;6.40;;;;;;;15.38;34.35;99188.31;4423663;32;20078;-85
2022/04/14 05:44:37;;;;;;;15.30;7.18;;;;;;;15.54;34.94;99188.94;4424852;32;20460;-85
2022/04/14 05:47:03;;;;;;;16.45;6.97;;;;;;;15.70;32.64;99187.91;4424892;32;20152;-84
2022/04/14 05:49:28;;;;;;;16.40;6.68;;;;;;;15.70;33.71;99193.22;4423783;32;20090;-84
2022/04/14 05:51:54;;;;;;;18.20;6.62;;;;;;;15.75;32.98;99201.75;4423748;32;20077;-85
2022/04/14 05:54:19;;;;;;;15.95;5.65;;;;;;;15.92;34.07;99193.47;4424618;32;20128;-85
2022/04/14 05:56:44;;;;;;;12.98;6.10;;;;;;;15.99;34.63;99191.19;4424536;32;20069;-86
2022/04/14 05:59:16;;;;;;;13.32;4.80;;;;;;;16.07;34.06;99194.19;4423604;32;20104;-84
2022/04/14 06:01:43;;;;;;;14.63;5.93;;;;;;;16.16;35.02;99194.50;4424883;32;20104;-85
2022/04/14 06:04:08;;;;;;;15.77;5.80;;;;;;;16.17;34.67;99185.53;4423697;32;20124;-85
2022/04/14 06:06:33;;;;;;;15.60;5.78;;;;;;;16.04;35.41;99193.56;4424511;32;20129;-85
2022/04/14 06:08:59;;;;;;;14.27;5.47;;;;;;;16.31;35.29;99196.91;4424757;32;20112;-85
2022/04/14 06:11:25;;;;;;;15.52;6.05;;;;;;;16.40;34.05;99195.41;4424700;32;20129;-86
2022/04/14 06:13:51;;;;;;;14.20;5.28;;;;;;;16.40;34.60;99197.19;4424601;32;20081;-85
2022/04/14 06:16:16;;;;;;;13.85;5.93;;;;;;;16.63;34.50;99187.53;4424794;32;20112;-86
2022/04/14 06:18:42;;;;;;;17.67;6.07;;;;;;;16.67;33.96;99183.72;4424549;32;20342;-85
2022/04/14 06:21:07;;;;;;;16.05;5.68;;;;;;;16.80;33.66;99184.47;4424588;32;20168;-85
2022/04/14 06:23:33;;;;;;;15.48;5.32;;;;;;;17.03;32.84;99182.81;4424580;32;20408;-84
2022/04/14 06:25:58;;;;;;;14.80;5.90;;;;;;;17.18;33.09;99193.28;4422943;32;20132;-86
2022/04/14 06:28:24;;;;;;;15.00;6.35;;;;;;;17.21;33.01;99185.91;4424557;32;20147;-86
2022/04/14 06:30:51;;;;;;;14.32;5.68;;;;;;;17.41;32.48;99187.06;4424473;32;20354;-84
2022/04/14 06:33:17;;;;;;;14.82;5.75;;;;;;;17.56;32.15;99187.69;4424372;32;20149;-84
2022/04/14 06:35:43;;;;;;;16.12;5.72;;;;;;;17.80;31.60;99182.25;4424499;32;20171;-84
2022/04/14 06:38:08;;;;;;;15.68;5.93;;;;;;;17.84;31.71;99182.91;4424397;32;20093;-85
2022/04/14 06:40:35;;;;;;;14.95;6.62;;;;;;;18.03;31.02;99182.31;4427921;32;20528;-86
2022/04/14 06:43:01;;;;;;;14.85;6.40;;;;;;;17.97;31.39;99180.97;4439122;32;20093;-86
2022/04/14 06:45:26;;;;;;;15.65;7.07;;;;;;;18.20;30.52;99181.81;4424753;32;20100;-86
2022/04/14 06:47:52;;;;;;;18.77;7.72;;;;;;;18.25;30.53;99184.97;4424886;32;20394;-85
2022/04/14 06:50:17;;;;;;;17.10;8.10;;;;;;;18.31;30.56;99182.78;4438635;32;20085;-86
2022/04/14 06:52:43;;;;;;;23.73;9.10;;;;;;;18.38;30.48;99176.81;4424781;32;20145;-85
2022/04/14 06:55:08;;;;;;;15.38;7.00;;;;;;;18.46;30.26;99177.03;4438748;32;20444;-88
2022/04/14 06:57:34;;;;;;;13.98;6.68;;;;;;;18.61;30.35;99176.78;4438869;32;20097;-85
2022/04/14 07:00:00;;;;;;;15.27;6.60;;;;;;;18.72;29.59;99181.25;4425058;32;20089;-91
2022/04/14 07:02:26;;;;;;;14.55;6.80;;;;;;;18.79;29.21;99177.09;4425119;32;20157;-91
2022/04/14 07:04:51;;;;;;;16.60;7.78;;;;;;;18.94;28.55;99181.19;4439364;32;20084;-85
2022/04/14 07:07:16;;;;;;;14.95;7.50;;;;;;;18.98;28.72;99179.94;4425139;32;20152;-84
2022/04/14 07:09:42;;;;;;;17.00;7.07;;;;;;;19.15;28.00;99181.22;4439074;32;20743;-87
2022/04/14 07:12:08;;;;;;;16.83;6.80;;;;;;;19.23;27.75;99180.56;4424720;32;20114;-85
2022/04/14 07:14:33;;;;;;;13.62;5.62;;;;;;;19.15;27.61;99177.72;4438802;32;20097;-85
2022/04/14 07:17:00;;;;;;;14.87;5.90;;;;;;;19.42;27.05;99182.53;4439535;32;20396;-93
2022/04/14 07:19:26;;;;;;;12.40;5.22;;;;;;;19.44;27.07;99177.91;4440222;32;20116;-92
2022/04/14 07:21:51;;;;;;;13.90;5.12;;;;;;;19.51;26.43;99186.22;4425506;32;20167;-92
2022/04/14 07:24:17;;;;;;;12.95;5.25;;;;;;;19.48;26.64;99182.00;4439283;32;20101;-92
2022/04/14 07:26:43;;;;;;;14.75;5.43;;;;;;;19.48;26.47;99183.84;4438606;32;20561;-93
2022/04/14 07:29:09;;;;;;;15.70;5.53;;;;;;;19.65;26.65;99185.91;4425904;32;20154;-93
2022/04/14 07:31:36;;;;;;;14.77;6.35;;;;;;;19.77;26.07;99181.38;4439774;32;20453;-94
2022/04/14 07:34:05;;;;;;;14.77;5.60;;;;;;;19.76;26.07;99187.69;4439313;32;20514;-95
2022/04/14 07:36:30;;;;;;;14.45;6.28;;;;;;;19.92;25.77;99182.72;4426217;32;20098;-92
2022/04/14 07:38:56;;;;;;;13.88;5.95;;;;;;;19.93;25.03;99187.06;4428041;32;20105;-93
2022/04/14 07:41:21;;;;;;;14.57;6.65;;;;;;;20.06;24.63;99188.69;4443664;32;20109;-94
2022/04/14 07:43:47;;;;;;;13.85;5.62;;;;;;;20.12;24.36;99185.47;4428307;32;20128;-95
2022/04/14 07:46:12;;;;;;;12.50;5.53;;;;;;;20.35;23.11;99181.59;4429091;32;20105;-95
2022/04/14 07:48:37;;;;;;;15.10;5.30;;;;;;;20.23;22.78;99183.53;4428275;32;20112;-94
2022/04/14 07:51:03;;;;;;;15.00;6.28;;;;;;;20.44;22.39;99187.97;4441828;32;20117;-95
2022/04/14 07:53:30;;;;;;;14.18;5.82;;;;;;;20.37;22.90;99190.34;4428279;32;20542;-95
2022/04/14 07:55:55;;;;;;;13.40;5.35;;;;;;;20.54;22.71;99193.34;4428852;32;20097;-92
2022/04/14 07:58:20;;;;;;;12.00;4.85;;;;;;;20.54;21.77;99193.34;4442080;32;20417;-95
2022/04/14 08:00:46;;;;;;;13.13;4.82;;;;;;;20.61;21.48;99192.69;4442070;32;20385;-92
2022/04/14 08:03:12;;;;;;;11.30;4.40;;;;;;;20.73;21.21;99189.91;4428416;32;20102;-93
2022/04/14 08:05:41;;;;;;;11.55;4.65;;;;;;;20.82;19.76;99189.03;4428451;32;20119;-95
2022/04/14 08:08:14;;;;;;;14.98;5.62;;;;;;;20.85;19.82;99186.09;4429085;32;20133;-92
2022/04/14 08:10:41;;;;;;;12.95;5.97;;;;;;;20.77;20.14;99189.47;4427078;32;20170;-92
2022/04/14 08:13:07;;;;;;;15.25;5.90;;;;;;;20.90;18.93;99188.34;4428585;32;20110;-95
2022/04/14 08:15:33;;;;;;;13.48;5.90;;;;;;;20.90;19.92;99183.88;4428182;32;20085;-92
2022/04/14 08:17:59;;;;;;;14.57;5.80;;;;;;;20.94;19.30;99187.09;4442115;32;20464;-94
2022/04/14 08:20:25;;;;;;;15.10;6.37;;;;;;;21.06;19.21;99190.50;4427726;32;20129;-92
2022/04/14 08:22:54;;;;;;;14.10;6.03;;;;;;;21.12;19.26;99195.28;4427136;32;20197;-92
2022/04/14 08:25:24;;;;;;;14.63;5.37;;;;;;;21.09;19.69;99190.19;4428178;32;20093;-93
2022/04/14 08:27:51;;;;;;;14.73;5.53;;;;;;;21.12;19.42;99195.28;4441551;32;20101;-94
2022/04/14 08:30:17;;;;;;;14.57;6.17;;;;;;;21.21;19.40;99195.28;4427786;32;20512;-95
2022/04/14 08:32:44;;;;;;;13.18;5.95;;;;;;;21.30;18.69;99187.38;4427759;32;20181;-96
2022/04/14 08:35:11;;;;;;;15.13;5.40;;;;;;;21.37;18.86;99192.00;4415346;32;20077;-93
2022/04/14 08:37:38;;;;;;;14.50;6.03;;;;;;;21.42;19.27;99188.91;4426678;32;20150;-94
2022/04/14 08:40:09;;;;;;;11.35;4.15;;;;;;;21.58;19.07;99194.56;4428355;32;20589;-95
2022/04/14 08:42:40;;;;;;;11.80;4.45;;;;;;;21.48;18.33;99188.38;4427168;32;20232;-94
2022/04/14 08:45:11;;;;;;;11.10;3.97;;;;;;;21.50;18.48;99189.06;4428965;32;20112;-95
2022/04/14 08:47:39;;;;;;;11.27;3.83;;;;;;;21.39;17.74;99195.41;4428163;32;20125;-94
2022/04/14 08:50:06;;;;;;;12.25;4.25;;;;;;;21.38;17.88;99198.22;4425720;32;20177;-91
2022/04/14 08:52:34;;;;;;;10.77;3.70;;;;;;;21.44;18.34;99195.00;4402837;32;20165;-92
2022/04/14 08:55:04;;;;;;;10.65;3.53;;;;;;;21.44;18.71;99188.78;4398728;32;20097;-94
2022/04/14 08:57:30;;;;;;;10.85;3.67;;;;;;;21.48;17.15;99187.50;4411961;32;20112;-92
2022/04/14 08:59:57;;;;;;;10.40;4.18;;;;;;;21.43;17.44;99189.75;4411804;32;20094;-95
2022/04/14 09:02:23;;;;;;;11.20;3.50;;;;;;;21.35;18.18;99190.47;4425842;32;20085;-96
2022/04/14 09:04:49;;;;;;;8.75;2.90;;;;;;;21.40;17.22;99186.37;4425729;32;20085;-94
2022/04/14 09:07:15;;;;;;;9.98;3.40;;;;;;;21.37;17.41;99186.66;4411293;32;20089;-94
2022/04/14 09:09:41;;;;;;;11.77;4.28;;;;;;;21.35;17.82;99185.13;4412246;32;20124;-92
2022/04/14 09:12:06;;;;;;;12.30;4.30;;;;;;;21.29;18.20;99191.06;4425766;32;20114;-93
2022/04/14 09:14:37;;;;;;;11.12;4.25;;;;;;;21.34;18.54;99188.78;4411891;32;20085;-92
2022/04/14 09:17:03;;;;;;;11.73;4.25;;;;;;;21.25;17.71;99190.47;4425770;32;20505;-92
2022/04/14 09:19:32;;;;;;;10.10;3.58;;;;;;;21.23;18.09;99191.59;4426390;32;20069;-93
2022/04/14 09:22:12;;;;;;;11.70;4.00;;;;;;;21.06;17.69;99183.28;4425153;32;20173;-93
2022/04/14 09:24:50;;;;;;;11.88;3.50;;;;;;;21.10;18.72;99184.69;4411303;32;20179;-92
2022/04/14 09:27:28;;;;;;;10.70;3.65;;;;;;;21.08;19.05;99184.00;4424970;32;20198;-91
2022/04/14 09:29:56;;;;;;;11.23;3.80;;;;;;;21.18;18.26;99179.47;4411340;32;20113;-91
2022/04/14 09:32:30;;;;;;;11.10;3.83;;;;;;;21.07;18.82;99187.66;4398201;32;20163;-92
2022/04/14 09:34:57;;;;;;;9.27;3.15;;;;;;;21.07;18.09;99179.63;4425479;32;20476;-93
2022/04/14 09:37:24;;;;;;;10.63;3.03;;;;;;;21.06;17.35;99187.81;4411036;32;20123;-92
2022/04/14 09:39:57;;;;;;;9.95;3.42;;;;;;;21.04;17.57;99182.59;4411115;32;20126;-93
2022/04/14 09:42:25;;;;;;;10.50;3.20;;;;;;;20.95;18.23;99178.06;4411209;32;21006;-92
2022/04/14 09:44:51;;;;;;;13.15;3.40;;;;;;;20.90;17.39;99177.63;4410679;32;20085;-92
2022/04/14 09:47:23;;;;;;;8.50;2.78;;;;;;;20.91;18.40;99174.81;4411065;32;20111;-93
2022/04/14 09:49:48;;;;;;;9.43;3.30;;;;;;;20.89;17.93;99171.44;4422749;32;77231;-90
2022/04/14 09:52:14;;;;;;;11.18;3.12;;;;;;;20.78;17.95;99172.44;4425003;32;20482;-91
2022/04/14 09:54:40;;;;;;;9.20;3.33;;;;;;;20.83;18.18;99166.66;4425157;32;20090;-94
2022/04/14 09:57:10;;;;;;;10.27;3.30;;;;;;;20.78;17.43;99166.22;4424793;32;20449;-92
2022/04/14 09:59:37;;;;;;;9.52;2.87;;;;;;;20.65;17.72;99166.50;4397682;32;20908;-91
2022/04/14 10:02:18;;;;;;;10.57;3.97;;;;;;;20.70;18.12;99171.44;4420262;32;20094;-92
2022/04/14 10:04:46;;;;;;;11.95;3.72;;;;;;;20.70;18.32;99174.09;4423777;32;20078;-92
2022/04/14 10:07:14;;;;;;;10.13;3.72;;;;;;;20.72;18.80;99162.25;4424719;32;20412;-91
2022/04/14 10:09:41;;;;;;;11.10;3.65;;;;;;;20.65;18.59;99160.28;4423454;32;20069;-94
2022/04/14 10:12:26;;;;;;;12.00;3.90;;;;;;;20.75;18.03;99158.47;4439429;32;20084;-93
2022/04/14 10:15:03;;;;;;;11.48;3.65;;;;;;;20.74;17.83;99162.97;4413893;32;20164;-94
2022/04/14 10:17:38;;;;;;;10.90;3.35;;;;;;;20.63;17.45;99155.09;4426817;32;20105;-92
2022/04/14 10:20:06;;;;;;;10.02;3.22;;;;;;;20.64;17.52;99159.44;4440004;32;20170;-91
2022/04/14 10:22:33;;;;;;;10.07;3.25;;;;;;;20.72;16.85;99154.22;4426261;32;20073;-92
2022/04/14 10:24:59;;;;;;;11.20;3.70;;;;;;;20.76;16.72;99146.75;4440440;32;20085;-90
2022/04/14 10:27:25;;;;;;;10.35;3.30;;;;;;;20.66;17.44;99143.25;4425759;32;20126;-91
2022/04/14 10:29:51;;;;;;;10.65;3.20;;;;;;;20.60;17.05;99144.66;4424115;32;20105;-94
2022/04/14 10:32:17;;;;;;;9.13;2.60;;;;;;;20.50;16.58;99141.09;4424290;32;20429;-92
2022/04/14 10:34:44;;;;;;;9.27;3.12;;;;;;;20.52;17.47;99145.31;4424588;32;20125;-93
2022/04/14 10:37:16;;;;;;;8.32;2.70;;;;;;;20.62;17.30;99140.84;4423764;32;20108;-92
2022/04/14 10:39:51;;;;;;;9.40;3.00;;;;;;;20.64;16.99;99137.19;4423217;32;20133;-92
2022/04/14 10:42:20;;;;;;;10.32;3.15;;;;;;;20.73;16.91;99139.03;4410914;32;20390;-90
2022/04/14 10:44:47;;;;;;;8.52;2.60;;;;;;;20.67;17.65;99140.44;4423075;32;20094;-93
2022/04/14 10:47:32;;;;;;;;;;;;;;;20.73;17.15;99134.53;4423860;32;20196;-90
2022/04/14 10:49:57;;;;;;;10.60;3.15;;;;;;;20.74;17.12;99133.50;4423116;32;19985;-91
2022/04/14 10:52:25;;;;;;;8.15;2.78;;;;;;;20.72;16.78;99131.97;4423409;32;20202;-92
2022/04/14 10:55:08;;;;;;;;;;;;;;;20.68;17.06;99133.25;4423646;32;20170;-91
2022/04/14 10:57:38;;;;;;;8.90;2.67;;;;;;;20.80;17.12;99126.75;4437967;32;19980;-93
2022/04/14 11:00:19;;;;;;;8.73;2.70;;;;;;;20.80;17.25;99124.06;4425601;32;20124;-91
2022/04/14 11:03:05;;;;;;;8.90;2.92;;;;;;;20.81;16.68;99131.97;4439769;32;20457;-91
2022/04/14 11:05:46;;;;;;;8.75;2.78;;;;;;;20.76;17.32;99128.03;4425470;32;20155;-94
2022/04/14 11:08:24;;;;;;;11.30;3.17;;;;;;;20.79;17.44;99117.87;4426159;32;20086;-91
2022/04/14 11:10:54;;;;;;;8.65;3.45;;;;;;;20.73;17.57;99133.69;4439293;32;20101;-92
2022/04/14 11:13:19;;;;;;;12.55;3.42;;;;;;;20.85;17.41;99127.19;4441669;32;20152;-92
2022/04/14 11:15:44;;;;;;;10.80;3.55;;;;;;;20.72;17.29;99131.97;4415107;32;20462;-93
2022/04/14 11:18:10;;;;;;;11.35;3.17;;;;;;;20.74;17.81;99124.66;4442328;32;20116;-92
2022/04/14 11:20:37;;;;;;;10.77;3.65;;;;;;;20.85;17.15;99129.03;4427229;32;20110;-89
2022/04/14 11:23:17;;;;;;;9.57;3.40;;;;;;;20.79;17.88;99127.75;4441328;32;20097;-91
2022/04/14 11:25:44;;;;;;;11.43;4.25;;;;;;;20.66;17.54;99113.81;4441209;32;20085;-92
2022/04/14 11:28:33;;;;;;;10.95;4.05;;;;;;;20.74;17.40;99113.94;4427479;32;20093;-91